Terminal Aerodrome Forecast
Issued by NWS Twin Cities, MN

Home | Current Version | Previous Version | Graphics & Text | Print | Product List | Glossary On
Versions: 1 2 3 4 5 6 7 8 9 10 11 12 13 14 15 16 17 18 19
000
FTUS43 KMPX 250544
TAFSTC
TAF
KSTC 250544Z 2506/2606 04006KT P6SM -SNDZ BKN025 OVC035
      TEMPO 2506/2508 SCT025 OVC100
     FM250800 03007KT P6SM OVC020
     FM252000 VRB03KT P6SM SCT025
     FM252300 20008KT P6SM FEW030 BKN200=

USA.gov is the U.S. government's official web portal to all federal, state and local government web resources and services.